sensor_id;sensor_type;location;lat;lon;timestamp;P1;durP1;ratioP1;P2;durP2;ratioP2
77738;SDS011;66904;59.926;30.404;2023-03-01T00:03:00;0.73;;;0.25;;
77738;SDS011;66904;59.926;30.404;2023-03-01T00:08:00;1.20;;;0.50;;
77738;SDS011;66904;59.926;30.404;2023-03-01T00:13:01;0.85;;;0.32;;
77738;SDS011;66904;59.926;30.404;2023-03-01T00:18:02;1.10;;;0.40;;
77738;SDS011;66904;59.926;30.404;2023-03-01T00:23:02;1.10;;;0.37;;
77738;SDS011;66904;59.926;30.404;2023-03-01T00:28:03;1.50;;;0.40;;
77738;SDS011;66904;59.926;30.404;2023-03-01T00:33:03;1.25;;;0.35;;
77738;SDS011;66904;59.926;30.404;2023-03-01T00:38:04;1.38;;;0.45;;
77738;SDS011;66904;59.926;30.404;2023-03-01T00:43:04;0.73;;;0.40;;
77738;SDS011;66904;59.926;30.404;2023-03-01T00:48:05;0.77;;;0.43;;
77738;SDS011;66904;59.926;30.404;2023-03-01T00:53:06;1.25;;;0.63;;
77738;SDS011;66904;59.926;30.404;2023-03-01T00:58:07;0.60;;;0.25;;
77738;SDS011;66904;59.926;30.404;2023-03-01T01:03:07;0.30;;;0.20;;
77738;SDS011;66904;59.926;30.404;2023-03-01T01:08:08;0.73;;;0.30;;
77738;SDS011;66904;59.926;30.404;2023-03-01T01:13:08;0.85;;;0.20;;
77738;SDS011;66904;59.926;30.404;2023-03-01T01:18:09;1.20;;;0.32;;
77738;SDS011;66904;59.926;30.404;2023-03-01T01:23:09;1.02;;;0.32;;
77738;SDS011;66904;59.926;30.404;2023-03-01T01:28:10;0.98;;;0.20;;
77738;SDS011;66904;59.926;30.404;2023-03-01T01:33:10;0.50;;;0.20;;
77738;SDS011;66904;59.926;30.404;2023-03-01T01:43:35;0.73;;;0.10;;
77738;SDS011;66904;59.926;30.404;2023-03-01T01:48:46;0.63;;;0.20;;
77738;SDS011;66904;59.926;30.404;2023-03-01T01:53:58;0.88;;;0.30;;
77738;SDS011;66904;59.926;30.404;2023-03-01T01:59:01;0.30;;;0.25;;
77738;SDS011;66904;59.926;30.404;2023-03-01T02:04:02;1.10;;;0.20;;
77738;SDS011;66904;59.926;30.404;2023-03-01T02:09:05;0.40;;;0.25;;
77738;SDS011;66904;59.926;30.404;2023-03-01T02:14:11;0.52;;;0.20;;
77738;SDS011;66904;59.926;30.404;2023-03-01T02:19:13;1.13;;;0.20;;
77738;SDS011;66904;59.926;30.404;2023-03-01T02:24:54;0.73;;;0.20;;
77738;SDS011;66904;59.926;30.404;2023-03-01T02:30:19;1.27;;;0.20;;
77738;SDS011;66904;59.926;30.404;2023-03-01T02:35:21;0.25;;;0.20;;
77738;SDS011;66904;59.926;30.404;2023-03-01T02:40:23;0.68;;;0.30;;
77738;SDS011;66904;59.926;30.404;2023-03-01T02:45:24;0.50;;;0.10;;
77738;SDS011;66904;59.926;30.404;2023-03-01T02:55:29;0.47;;;0.20;;
77738;SDS011;66904;59.926;30.404;2023-03-01T03:00:34;0.82;;;0.20;;
77738;SDS011;66904;59.926;30.404;2023-03-01T03:05:39;0.40;;;0.17;;
77738;SDS011;66904;59.926;30.404;2023-03-01T03:10:43;0.50;;;0.20;;
77738;SDS011;66904;59.926;30.404;2023-03-01T03:15:43;0.47;;;0.17;;
77738;SDS011;66904;59.926;30.404;2023-03-01T03:20:44;0.85;;;0.20;;
77738;SDS011;66904;59.926;30.404;2023-03-01T03:25:57;0.30;;;0.10;;
77738;SDS011;66904;59.926;30.404;2023-03-01T03:31:19;0.40;;;0.20;;
77738;SDS011;66904;59.926;30.404;2023-03-01T03:41:28;0.85;;;0.20;;
77738;SDS011;66904;59.926;30.404;2023-03-01T03:46:29;0.57;;;0.30;;
77738;SDS011;66904;59.926;30.404;2023-03-01T03:51:30;0.32;;;0.10;;
77738;SDS011;66904;59.926;30.404;2023-03-01T03:56:30;0.13;;;0.10;;
77738;SDS011;66904;59.926;30.404;2023-03-01T04:01:31;0.68;;;0.20;;
77738;SDS011;66904;59.926;30.404;2023-03-01T04:06:31;0.75;;;0.65;;
77738;SDS011;66904;59.926;30.404;2023-03-01T04:11:32;1.13;;;0.43;;
77738;SDS011;66904;59.926;30.404;2023-03-01T04:16:34;0.47;;;0.10;;
77738;SDS011;66904;59.926;30.404;2023-03-01T04:21:35;0.20;;;0.10;;
77738;SDS011;66904;59.926;30.404;2023-03-01T04:26:36;0.20;;;0.08;;
77738;SDS011;66904;59.926;30.404;2023-03-01T04:31:36;0.43;;;0.22;;
77738;SDS011;66904;59.926;30.404;2023-03-01T04:36:37;0.63;;;0.20;;
77738;SDS011;66904;59.926;30.404;2023-03-01T04:41:38;0.50;;;0.20;;
77738;SDS011;66904;59.926;30.404;2023-03-01T04:46:39;0.55;;;0.20;;
77738;SDS011;66904;59.926;30.404;2023-03-01T04:51:39;0.35;;;0.20;;
77738;SDS011;66904;59.926;30.404;2023-03-01T04:56:40;0.28;;;0.10;;
77738;SDS011;66904;59.926;30.404;2023-03-01T05:01:40;1.42;;;0.30;;
77738;SDS011;66904;59.926;30.404;2023-03-01T05:06:43;0.70;;;0.10;;
77738;SDS011;66904;59.926;30.404;2023-03-01T05:11:44;0.50;;;0.30;;
77738;SDS011;66904;59.926;30.404;2023-03-01T05:16:44;1.10;;;0.20;;
77738;SDS011;66904;59.926;30.404;2023-03-01T05:21:45;0.73;;;0.52;;
77738;SDS011;66904;59.926;30.404;2023-03-01T05:27:04;0.35;;;0.30;;
77738;SDS011;66904;59.926;30.404;2023-03-01T05:32:04;1.63;;;0.50;;
77738;SDS011;66904;59.926;30.404;2023-03-01T05:37:05;0.30;;;0.20;;
77738;SDS011;66904;59.926;30.404;2023-03-01T05:42:10;0.25;;;0.08;;
77738;SDS011;66904;59.926;30.404;2023-03-01T05:47:11;3.60;;;0.43;;
77738;SDS011;66904;59.926;30.404;2023-03-01T05:52:11;0.60;;;0.30;;
77738;SDS011;66904;59.926;30.404;2023-03-01T05:57:12;0.68;;;0.30;;
77738;SDS011;66904;59.926;30.404;2023-03-01T06:02:12;1.85;;;0.30;;
77738;SDS011;66904;59.926;30.404;2023-03-01T06:07:16;1.10;;;0.30;;
77738;SDS011;66904;59.926;30.404;2023-03-01T06:13:09;0.68;;;0.38;;
77738;SDS011;66904;59.926;30.404;2023-03-01T06:18:31;0.90;;;0.43;;
77738;SDS011;66904;59.926;30.404;2023-03-01T06:23:32;1.50;;;0.50;;
77738;SDS011;66904;59.926;30.404;2023-03-01T06:28:33;0.68;;;0.17;;
77738;SDS011;66904;59.926;30.404;2023-03-01T06:33:34;0.95;;;0.32;;
77738;SDS011;66904;59.926;30.404;2023-03-01T06:38:36;1.23;;;0.40;;
77738;SDS011;66904;59.926;30.404;2023-03-01T06:43:42;0.85;;;0.30;;
77738;SDS011;66904;59.926;30.404;2023-03-01T06:54:31;0.93;;;0.30;;
77738;SDS011;66904;59.926;30.404;2023-03-01T06:59:32;0.60;;;0.30;;
77738;SDS011;66904;59.926;30.404;2023-03-01T07:04:32;0.50;;;0.10;;
77738;SDS011;66904;59.926;30.404;2023-03-01T07:09:33;0.50;;;0.30;;
77738;SDS011;66904;59.926;30.404;2023-03-01T07:14:33;1.60;;;0.28;;
77738;SDS011;66904;59.926;30.404;2023-03-01T07:19:34;1.30;;;0.50;;
77738;SDS011;66904;59.926;30.404;2023-03-01T07:24:35;0.45;;;0.20;;
77738;SDS011;66904;59.926;30.404;2023-03-01T07:29:35;0.45;;;0.20;;
77738;SDS011;66904;59.926;30.404;2023-03-01T07:34:39;1.25;;;0.20;;
77738;SDS011;66904;59.926;30.404;2023-03-01T07:39:39;0.75;;;0.35;;
77738;SDS011;66904;59.926;30.404;2023-03-01T07:44:40;0.75;;;0.22;;
77738;SDS011;66904;59.926;30.404;2023-03-01T07:49:41;0.47;;;0.13;;
77738;SDS011;66904;59.926;30.404;2023-03-01T07:54:47;0.90;;;0.30;;
77738;SDS011;66904;59.926;30.404;2023-03-01T08:00:10;0.63;;;0.10;;
77738;SDS011;66904;59.926;30.404;2023-03-01T08:05:11;0.85;;;0.40;;
77738;SDS011;66904;59.926;30.404;2023-03-01T08:10:12;2.47;;;0.32;;
77738;SDS011;66904;59.926;30.404;2023-03-01T08:15:12;0.32;;;0.32;;
77738;SDS011;66904;59.926;30.404;2023-03-01T08:20:13;0.60;;;0.30;;
77738;SDS011;66904;59.926;30.404;2023-03-01T08:25:13;1.02;;;0.30;;
77738;SDS011;66904;59.926;30.404;2023-03-01T08:30:14;0.47;;;0.20;;
77738;SDS011;66904;59.926;30.404;2023-03-01T08:35:15;0.32;;;0.17;;
77738;SDS011;66904;59.926;30.404;2023-03-01T08:40:16;0.38;;;0.20;;
77738;SDS011;66904;59.926;30.404;2023-03-01T08:45:16;0.45;;;0.15;;
77738;SDS011;66904;59.926;30.404;2023-03-01T08:50:18;0.73;;;0.30;;
77738;SDS011;66904;59.926;30.404;2023-03-01T08:55:19;0.47;;;0.20;;
77738;SDS011;66904;59.926;30.404;2023-03-01T09:00:19;0.65;;;0.17;;
77738;SDS011;66904;59.926;30.404;2023-03-01T09:05:20;0.63;;;0.20;;
77738;SDS011;66904;59.926;30.404;2023-03-01T09:10:21;0.47;;;0.10;;
77738;SDS011;66904;59.926;30.404;2023-03-01T09:15:21;2.88;;;0.40;;
77738;SDS011;66904;59.926;30.404;2023-03-01T09:20:22;1.90;;;0.20;;
77738;SDS011;66904;59.926;30.404;2023-03-01T09:25:22;0.35;;;0.20;;
77738;SDS011;66904;59.926;30.404;2023-03-01T09:30:23;2.22;;;0.47;;
77738;SDS011;66904;59.926;30.404;2023-03-01T09:35:24;1.05;;;0.20;;
77738;SDS011;66904;59.926;30.404;2023-03-01T09:40:25;0.93;;;0.20;;
77738;SDS011;66904;59.926;30.404;2023-03-01T09:45:38;0.32;;;0.10;;
77738;SDS011;66904;59.926;30.404;2023-03-01T09:50:44;0.95;;;0.30;;
77738;SDS011;66904;59.926;30.404;2023-03-01T09:56:00;0.40;;;0.20;;
77738;SDS011;66904;59.926;30.404;2023-03-01T10:06:34;0.68;;;0.20;;
77738;SDS011;66904;59.926;30.404;2023-03-01T10:11:37;1.40;;;0.38;;
77738;SDS011;66904;59.926;30.404;2023-03-01T10:16:50;0.30;;;0.10;;
77738;SDS011;66904;59.926;30.404;2023-03-01T10:21:54;1.33;;;0.40;;
77738;SDS011;66904;59.926;30.404;2023-03-01T10:27:04;0.70;;;0.20;;
77738;SDS011;66904;59.926;30.404;2023-03-01T10:37:11;0.20;;;0.20;;
77738;SDS011;66904;59.926;30.404;2023-03-01T10:42:19;0.65;;;0.20;;
77738;SDS011;66904;59.926;30.404;2023-03-01T10:47:26;3.22;;;0.32;;
77738;SDS011;66904;59.926;30.404;2023-03-01T10:52:30;1.02;;;0.15;;
77738;SDS011;66904;59.926;30.404;2023-03-01T10:57:36;0.60;;;0.22;;
77738;SDS011;66904;59.926;30.404;2023-03-01T11:02:39;0.10;;;0.10;;
77738;SDS011;66904;59.926;30.404;2023-03-01T11:13:07;0.88;;;0.45;;
77738;SDS011;66904;59.926;30.404;2023-03-01T11:18:21;0.45;;;0.25;;
77738;SDS011;66904;59.926;30.404;2023-03-01T11:23:22;0.22;;;0.10;;
77738;SDS011;66904;59.926;30.404;2023-03-01T11:28:24;0.90;;;0.10;;
77738;SDS011;66904;59.926;30.404;2023-03-01T11:38:37;1.20;;;0.20;;
77738;SDS011;66904;59.926;30.404;2023-03-01T11:49:01;0.60;;;0.20;;
77738;SDS011;66904;59.926;30.404;2023-03-01T12:32:57;0.65;;;0.40;;
77738;SDS011;66904;59.926;30.404;2023-03-01T12:38:25;0.20;;;0.10;;
77738;SDS011;66904;59.926;30.404;2023-03-01T12:49:18;0.40;;;0.17;;
77738;SDS011;66904;59.926;30.404;2023-03-01T12:54:27;1.05;;;0.10;;
77738;SDS011;66904;59.926;30.404;2023-03-01T12:59:33;1.17;;;0.20;;
77738;SDS011;66904;59.926;30.404;2023-03-01T13:15:01;0.65;;;0.20;;
77738;SDS011;66904;59.926;30.404;2023-03-01T13:20:02;1.05;;;0.25;;
77738;SDS011;66904;59.926;30.404;2023-03-01T13:35:41;0.30;;;0.10;;
77738;SDS011;66904;59.926;30.404;2023-03-01T13:45:57;0.95;;;0.30;;
77738;SDS011;66904;59.926;30.404;2023-03-01T13:51:00;0.45;;;0.10;;
77738;SDS011;66904;59.926;30.404;2023-03-01T14:06:35;0.10;;;0.10;;
77738;SDS011;66904;59.926;30.404;2023-03-01T14:22:27;0.38;;;0.10;;
77738;SDS011;66904;59.926;30.404;2023-03-01T14:27:33;0.30;;;0.13;;
77738;SDS011;66904;59.926;30.404;2023-03-01T14:32:39;0.43;;;0.10;;
77738;SDS011;66904;59.926;30.404;2023-03-01T14:37:40;1.10;;;0.60;;
77738;SDS011;66904;59.926;30.404;2023-03-01T14:42:40;2.20;;;0.23;;
77738;SDS011;66904;59.926;30.404;2023-03-01T14:47:41;2.15;;;0.17;;
77738;SDS011;66904;59.926;30.404;2023-03-01T14:52:45;0.05;;;0.00;;
77738;SDS011;66904;59.926;30.404;2023-03-01T14:57:48;1.67;;;0.20;;
77738;SDS011;66904;59.926;30.404;2023-03-01T15:02:50;1.00;;;0.20;;
77738;SDS011;66904;59.926;30.404;2023-03-01T15:07:52;0.55;;;0.13;;
77738;SDS011;66904;59.926;30.404;2023-03-01T15:12:54;1.08;;;0.10;;
77738;SDS011;66904;59.926;30.404;2023-03-01T15:17:59;0.20;;;0.10;;
77738;SDS011;66904;59.926;30.404;2023-03-01T15:23:02;0.10;;;0.10;;
77738;SDS011;66904;59.926;30.404;2023-03-01T15:28:03;0.52;;;0.10;;
77738;SDS011;66904;59.926;30.404;2023-03-01T15:43:48;2.03;;;0.10;;
77738;SDS011;66904;59.926;30.404;2023-03-01T15:48:51;0.20;;;0.10;;
77738;SDS011;66904;59.926;30.404;2023-03-01T15:53:54;0.65;;;0.17;;
77738;SDS011;66904;59.926;30.404;2023-03-01T15:58:59;1.20;;;0.10;;
77738;SDS011;66904;59.926;30.404;2023-03-01T16:04:02;0.50;;;0.10;;
77738;SDS011;66904;59.926;30.404;2023-03-01T16:09:02;0.20;;;0.05;;
77738;SDS011;66904;59.926;30.404;2023-03-01T16:14:03;0.73;;;0.05;;
77738;SDS011;66904;59.926;30.404;2023-03-01T16:19:18;0.13;;;0.05;;
77738;SDS011;66904;59.926;30.404;2023-03-01T16:24:19;1.10;;;0.15;;
77738;SDS011;66904;59.926;30.404;2023-03-01T16:34:37;1.13;;;0.20;;
77738;SDS011;66904;59.926;30.404;2023-03-01T16:39:38;0.35;;;0.10;;
77738;SDS011;66904;59.926;30.404;2023-03-01T16:44:39;0.30;;;0.17;;
77738;SDS011;66904;59.926;30.404;2023-03-01T16:49:39;0.32;;;0.10;;
77738;SDS011;66904;59.926;30.404;2023-03-01T16:54:40;0.70;;;0.30;;
77738;SDS011;66904;59.926;30.404;2023-03-01T16:59:41;1.05;;;0.20;;
77738;SDS011;66904;59.926;30.404;2023-03-01T17:10:03;0.20;;;0.20;;
77738;SDS011;66904;59.926;30.404;2023-03-01T17:15:05;1.80;;;0.45;;
77738;SDS011;66904;59.926;30.404;2023-03-01T17:20:06;0.75;;;0.13;;
77738;SDS011;66904;59.926;30.404;2023-03-01T17:25:09;1.20;;;0.40;;
77738;SDS011;66904;59.926;30.404;2023-03-01T17:30:11;0.93;;;0.10;;
77738;SDS011;66904;59.926;30.404;2023-03-01T17:35:13;1.10;;;0.28;;
77738;SDS011;66904;59.926;30.404;2023-03-01T17:40:14;0.50;;;0.20;;
77738;SDS011;66904;59.926;30.404;2023-03-01T17:45:15;0.95;;;0.40;;
77738;SDS011;66904;59.926;30.404;2023-03-01T17:50:16;0.40;;;0.10;;
77738;SDS011;66904;59.926;30.404;2023-03-01T17:55:17;1.27;;;0.20;;
77738;SDS011;66904;59.926;30.404;2023-03-01T18:00:18;0.88;;;0.30;;
77738;SDS011;66904;59.926;30.404;2023-03-01T18:05:19;1.48;;;0.20;;
77738;SDS011;66904;59.926;30.404;2023-03-01T18:10:20;0.70;;;0.20;;
77738;SDS011;66904;59.926;30.404;2023-03-01T18:15:20;0.73;;;0.30;;
77738;SDS011;66904;59.926;30.404;2023-03-01T18:20:21;4.00;;;0.35;;
77738;SDS011;66904;59.926;30.404;2023-03-01T18:25:21;2.15;;;0.85;;
77738;SDS011;66904;59.926;30.404;2023-03-01T18:30:22;3.15;;;0.13;;
77738;SDS011;66904;59.926;30.404;2023-03-01T18:35:22;0.52;;;0.20;;
77738;SDS011;66904;59.926;30.404;2023-03-01T18:40:23;2.10;;;0.30;;
77738;SDS011;66904;59.926;30.404;2023-03-01T18:45:23;0.30;;;0.20;;
77738;SDS011;66904;59.926;30.404;2023-03-01T18:50:24;1.13;;;0.28;;
77738;SDS011;66904;59.926;30.404;2023-03-01T18:55:24;0.93;;;0.47;;
77738;SDS011;66904;59.926;30.404;2023-03-01T19:00:25;0.70;;;0.20;;
77738;SDS011;66904;59.926;30.404;2023-03-01T19:05:26;0.55;;;0.17;;
77738;SDS011;66904;59.926;30.404;2023-03-01T19:10:27;1.40;;;0.50;;
77738;SDS011;66904;59.926;30.404;2023-03-01T19:15:28;0.60;;;0.17;;
77738;SDS011;66904;59.926;30.404;2023-03-01T19:20:28;1.30;;;0.47;;
77738;SDS011;66904;59.926;30.404;2023-03-01T19:25:29;13.23;;;12.05;;
77738;SDS011;66904;59.926;30.404;2023-03-01T19:30:29;80.07;;;71.38;;
77738;SDS011;66904;59.926;30.404;2023-03-01T19:35:30;108.95;;;97.25;;
77738;SDS011;66904;59.926;30.404;2023-03-01T19:40:34;155.50;;;137.23;;
77738;SDS011;66904;59.926;30.404;2023-03-01T19:45:35;248.13;;;215.80;;
77738;SDS011;66904;59.926;30.404;2023-03-01T19:50:35;201.48;;;166.98;;
77738;SDS011;66904;59.926;30.404;2023-03-01T19:55:37;150.52;;;126.25;;
77738;SDS011;66904;59.926;30.404;2023-03-01T20:00:38;106.65;;;83.65;;
77738;SDS011;66904;59.926;30.404;2023-03-01T20:05:39;53.53;;;42.97;;
77738;SDS011;66904;59.926;30.404;2023-03-01T20:10:42;41.92;;;34.20;;
77738;SDS011;66904;59.926;30.404;2023-03-01T20:15:42;28.75;;;21.90;;
77738;SDS011;66904;59.926;30.404;2023-03-01T20:20:46;19.05;;;16.00;;
77738;SDS011;66904;59.926;30.404;2023-03-01T20:25:48;13.10;;;10.00;;
77738;SDS011;66904;59.926;30.404;2023-03-01T20:30:48;16.02;;;9.07;;
77738;SDS011;66904;59.926;30.404;2023-03-01T20:35:49;9.50;;;6.50;;
77738;SDS011;66904;59.926;30.404;2023-03-01T20:40:49;5.85;;;4.35;;
77738;SDS011;66904;59.926;30.404;2023-03-01T20:45:50;4.00;;;2.90;;
77738;SDS011;66904;59.926;30.404;2023-03-01T20:50:50;3.53;;;1.83;;
77738;SDS011;66904;59.926;30.404;2023-03-01T20:55:51;2.90;;;1.38;;
77738;SDS011;66904;59.926;30.404;2023-03-01T21:00:51;2.58;;;1.30;;
77738;SDS011;66904;59.926;30.404;2023-03-01T21:05:55;2.38;;;0.77;;
77738;SDS011;66904;59.926;30.404;2023-03-01T21:10:56;1.88;;;0.75;;
77738;SDS011;66904;59.926;30.404;2023-03-01T21:16:01;2.08;;;0.50;;
77738;SDS011;66904;59.926;30.404;2023-03-01T21:21:10;0.93;;;0.30;;
77738;SDS011;66904;59.926;30.404;2023-03-01T21:26:16;1.30;;;0.40;;
77738;SDS011;66904;59.926;30.404;2023-03-01T21:31:26;1.23;;;0.40;;
77738;SDS011;66904;59.926;30.404;2023-03-01T21:36:31;0.50;;;0.30;;
77738;SDS011;66904;59.926;30.404;2023-03-01T21:41:33;0.80;;;0.40;;
77738;SDS011;66904;59.926;30.404;2023-03-01T21:46:54;2.95;;;0.52;;
77738;SDS011;66904;59.926;30.404;2023-03-01T21:52:33;0.28;;;0.20;;
77738;SDS011;66904;59.926;30.404;2023-03-01T21:57:34;0.40;;;0.30;;
77738;SDS011;66904;59.926;30.404;2023-03-01T22:02:48;0.88;;;0.30;;
77738;SDS011;66904;59.926;30.404;2023-03-01T22:08:00;0.73;;;0.40;;
77738;SDS011;66904;59.926;30.404;2023-03-01T22:24:35;1.40;;;0.57;;
77738;SDS011;66904;59.926;30.404;2023-03-01T22:35:32;0.30;;;0.20;;
77738;SDS011;66904;59.926;30.404;2023-03-01T22:40:32;0.88;;;0.40;;
77738;SDS011;66904;59.926;30.404;2023-03-01T22:45:33;0.52;;;0.25;;
77738;SDS011;66904;59.926;30.404;2023-03-01T22:50:46;0.77;;;0.40;;
77738;SDS011;66904;59.926;30.404;2023-03-01T22:56:25;1.08;;;0.30;;
77738;SDS011;66904;59.926;30.404;2023-03-01T23:01:28;0.80;;;0.47;;
77738;SDS011;66904;59.926;30.404;2023-03-01T23:06:29;1.00;;;0.38;;
77738;SDS011;66904;59.926;30.404;2023-03-01T23:11:30;0.70;;;0.40;;
77738;SDS011;66904;59.926;30.404;2023-03-01T23:17:04;1.20;;;0.55;;
77738;SDS011;66904;59.926;30.404;2023-03-01T23:22:09;0.73;;;0.25;;
77738;SDS011;66904;59.926;30.404;2023-03-01T23:27:22;0.80;;;0.40;;
77738;SDS011;66904;59.926;30.404;2023-03-01T23:32:29;0.75;;;0.40;;
77738;SDS011;66904;59.926;30.404;2023-03-01T23:37:30;0.80;;;0.43;;
77738;SDS011;66904;59.926;30.404;2023-03-01T23:42:31;1.45;;;0.60;;
77738;SDS011;66904;59.926;30.404;2023-03-01T23:53:01;0.68;;;0.40;;
77738;SDS011;66904;59.926;30.404;2023-03-01T23:58:02;0.85;;;0.40;;
